createdAt,value
2019-03-20T00:01:59.383Z,17.70
2019-03-20T00:07:02.252Z,17.30
2019-03-20T00:12:05.062Z,12.67
2019-03-20T00:17:07.803Z,12.33
2019-03-20T00:22:10.682Z,19.17
2019-03-20T00:27:14.754Z,10.27
2019-03-20T00:32:17.499Z,9.03
2019-03-20T00:37:20.344Z,15.20
2019-03-20T00:42:23.171Z,6.83
2019-03-20T00:47:25.991Z,12.10
2019-03-20T00:52:28.891Z,8.37
2019-03-20T00:57:31.563Z,13.37
2019-03-20T01:02:34.450Z,12.40
2019-03-20T01:07:37.197Z,17.60
2019-03-20T01:12:39.831Z,12.87
2019-03-20T01:17:42.634Z,8.07
2019-03-20T01:22:46.225Z,12.37
2019-03-20T01:27:49.118Z,9.53
2019-03-20T01:32:51.717Z,10.43
2019-03-20T01:37:54.352Z,12.77
2019-03-20T01:42:57.133Z,12.70
2019-03-20T01:47:59.940Z,12.90
2019-03-20T01:53:02.920Z,14.53
2019-03-20T01:58:05.594Z,15.87
2019-03-20T02:03:08.314Z,11.93
2019-03-20T02:08:10.955Z,12.70
2019-03-20T02:13:16.697Z,14.00
2019-03-20T02:18:19.479Z,15.80
2019-03-20T02:23:22.286Z,10.30
2019-03-20T02:28:25.074Z,16.33
2019-03-20T02:33:27.808Z,10.90
2019-03-20T02:38:30.537Z,14.57
2019-03-20T02:43:33.462Z,18.30
2019-03-20T02:48:36.153Z,22.57
2019-03-20T02:53:38.881Z,16.47
2019-03-20T02:58:41.620Z,10.83
2019-03-20T03:03:44.621Z,11.03
2019-03-20T03:08:47.356Z,14.77
2019-03-20T03:13:50.180Z,16.90
2019-03-20T03:18:53.034Z,13.93
2019-03-20T03:23:55.867Z,15.70
2019-03-20T03:28:58.635Z,15.53
2019-03-20T03:34:01.416Z,17.57
2019-03-20T03:39:06.361Z,14.57
2019-03-20T03:44:09.073Z,21.90
2019-03-20T03:49:11.831Z,17.13
2019-03-20T03:54:14.562Z,19.27
2019-03-20T03:59:17.249Z,25.07
2019-03-20T04:04:19.985Z,20.53
2019-03-20T04:09:22.705Z,14.30
2019-03-20T04:14:25.396Z,23.07
2019-03-20T04:19:28.011Z,18.03
2019-03-20T04:24:30.748Z,12.33
2019-03-20T04:29:33.388Z,28.40
2019-03-20T04:34:36.003Z,20.47
2019-03-20T04:39:40.255Z,20.53
2019-03-20T04:44:42.924Z,22.33
2019-03-20T04:49:45.652Z,22.03
2019-03-20T04:54:48.395Z,17.13
2019-03-20T04:59:51.159Z,15.50
2019-03-20T05:04:53.833Z,13.03
2019-03-20T05:09:56.404Z,25.90
2019-03-20T05:14:59.118Z,30.57
2019-03-20T05:20:01.994Z,27.33
2019-03-20T05:25:05.267Z,36.40
2019-03-20T05:30:08.924Z,33.77
2019-03-20T05:35:12.092Z,18.10
2019-03-20T05:40:14.698Z,35.70
2019-03-20T05:45:17.410Z,30.10
2019-03-20T05:50:20.792Z,32.80
2019-03-20T05:55:23.831Z,35.93
2019-03-20T06:00:29.181Z,37.53
2019-03-20T06:05:31.818Z,25.70
2019-03-20T06:10:35.114Z,27.20
2019-03-20T06:15:38.909Z,37.73
2019-03-20T06:20:41.779Z,29.40
2019-03-20T06:25:44.390Z,30.80
2019-03-20T06:30:47.066Z,37.87
2019-03-20T06:35:49.693Z,30.53
2019-03-20T06:40:52.284Z,39.70
2019-03-20T06:45:54.949Z,43.70
2019-03-20T06:50:57.616Z,37.43
2019-03-20T06:56:01.309Z,34.70
2019-03-20T07:01:18.531Z,34.17
2019-03-20T07:06:43.852Z,35.20
2019-03-20T07:11:46.989Z,39.17
2019-03-20T07:16:49.688Z,32.73
2019-03-20T07:21:52.427Z,43.87
2019-03-20T07:26:55.134Z,44.23
2019-03-20T07:31:57.924Z,66.03
2019-03-20T07:37:01.205Z,60.53
2019-03-20T07:42:03.988Z,80.83
2019-03-20T07:47:06.559Z,124.97
2019-03-20T07:52:09.338Z,104.87
2019-03-20T07:57:12.078Z,177.47
2019-03-20T08:02:14.716Z,295.63
2019-03-20T08:07:17.328Z,97.40
2019-03-20T08:12:19.908Z,118.37
2019-03-20T08:17:22.517Z,61.03
2019-03-20T08:22:25.227Z,73.73
2019-03-20T08:27:27.856Z,69.50
2019-03-20T08:32:30.555Z,56.37
2019-03-20T08:37:33.256Z,38.27
2019-03-20T08:42:36.019Z,35.13
2019-03-20T08:47:39.745Z,31.57
2019-03-20T08:52:43.602Z,35.20
2019-03-20T08:57:46.398Z,21.17
2019-03-20T09:02:50.572Z,23.60
2019-03-20T09:07:53.329Z,26.37
2019-03-20T09:12:55.987Z,25.13
2019-03-20T09:17:58.669Z,21.27
2019-03-20T09:23:07.425Z,32.93
2019-03-20T09:28:10.003Z,23.23
2019-03-20T09:33:12.780Z,26.00
2019-03-20T09:38:15.497Z,17.70
2019-03-20T09:43:18.128Z,29.67
2019-03-20T09:48:21.967Z,23.73
2019-03-20T09:53:27.661Z,26.70
2019-03-20T09:58:30.411Z,26.73
2019-03-20T10:03:33.187Z,29.90
2019-03-20T10:08:35.872Z,16.47
2019-03-20T10:13:38.579Z,35.47
2019-03-20T10:18:41.201Z,23.90
2019-03-20T10:23:43.904Z,33.33
2019-03-20T10:28:46.712Z,19.03
2019-03-20T10:33:49.504Z,25.47
2019-03-20T10:38:52.350Z,30.60
2019-03-20T10:43:55.203Z,39.40
2019-03-20T10:48:57.935Z,31.30
2019-03-20T10:54:00.693Z,32.77
2019-03-20T10:59:03.437Z,26.17
2019-03-20T11:04:06.149Z,28.30
2019-03-20T11:09:17.653Z,26.33
2019-03-20T11:14:13.345Z,28.67
2019-03-20T11:19:16.178Z,20.90
2019-03-20T11:24:18.946Z,27.87
2019-03-20T11:29:21.985Z,17.53
2019-03-20T11:34:25.008Z,32.50
2019-03-20T11:39:29.860Z,20.10
2019-03-20T11:44:32.261Z,22.30
2019-03-20T11:49:34.947Z,25.17
2019-03-20T11:54:37.634Z,24.30
2019-03-20T11:59:40.296Z,27.83
2019-03-20T12:04:42.973Z,30.67
2019-03-20T12:09:45.748Z,30.20
2019-03-20T12:14:48.379Z,32.63
2019-03-20T12:19:51.099Z,36.27
2019-03-20T12:24:53.896Z,30.47
2019-03-20T12:29:56.588Z,29.93
2019-03-20T12:34:59.324Z,34.63
2019-03-20T12:40:02.124Z,31.63
2019-03-20T12:45:09.426Z,28.07
2019-03-20T12:50:12.239Z,30.53
2019-03-20T12:55:14.936Z,30.57
2019-03-20T13:00:19.179Z,24.87
2019-03-20T13:05:22.065Z,25.70
2019-03-20T13:10:25.113Z,27.10
2019-03-20T13:15:30.317Z,28.90
2019-03-20T13:20:33.027Z,31.30
2019-03-20T13:25:35.683Z,29.17
2019-03-20T13:30:41.391Z,31.03
2019-03-20T13:35:44.023Z,39.37
2019-03-20T13:40:46.723Z,34.33
2019-03-20T13:45:49.684Z,22.63
2019-03-20T13:50:52.353Z,30.73
2019-03-20T13:55:55.037Z,29.47
2019-03-20T14:00:57.738Z,36.43
2019-03-20T14:06:00.444Z,21.40
2019-03-20T14:11:03.231Z,24.77
2019-03-20T14:16:06.006Z,28.47
2019-03-20T14:21:08.756Z,28.57
2019-03-20T14:26:11.490Z,28.37
2019-03-20T14:31:14.164Z,34.90
2019-03-20T14:36:16.939Z,27.37
2019-03-20T14:41:21.701Z,21.67
2019-03-20T14:46:25.221Z,26.40
2019-03-20T14:51:28.063Z,27.70
2019-03-20T14:56:30.914Z,35.00
2019-03-20T15:01:34.015Z,40.27
2019-03-20T15:06:36.670Z,37.17
2019-03-20T15:11:39.346Z,28.63
2019-03-20T15:16:42.132Z,32.90
2019-03-20T15:21:44.952Z,33.43
2019-03-20T15:26:47.699Z,41.87
2019-03-20T15:31:50.703Z,33.27
2019-03-20T15:36:53.405Z,40.10
2019-03-20T15:41:56.156Z,33.27
2019-03-20T15:46:59.044Z,37.57
2019-03-20T15:52:01.901Z,44.10
2019-03-20T15:57:04.658Z,47.13
2019-03-20T16:02:07.352Z,42.17
2019-03-20T16:07:10.157Z,32.63
2019-03-20T16:12:14.009Z,47.90
2019-03-20T16:17:16.848Z,30.83
2019-03-20T16:22:19.580Z,44.57
2019-03-20T16:27:22.348Z,40.83
2019-03-20T16:32:26.194Z,46.67
2019-03-20T16:37:29.140Z,41.13
2019-03-20T16:42:32.099Z,42.30
2019-03-20T16:47:34.725Z,51.20
2019-03-20T16:52:37.355Z,39.43
2019-03-20T16:57:40.464Z,50.50
2019-03-20T17:02:43.202Z,48.80
2019-03-20T17:07:45.812Z,47.07
2019-03-20T17:12:48.638Z,31.37
2019-03-20T17:17:51.507Z,41.30
2019-03-20T17:22:54.619Z,43.17
2019-03-20T17:27:57.478Z,54.47
2019-03-20T17:33:00.206Z,51.67
2019-03-20T17:38:03.315Z,37.60
2019-03-20T17:43:06.947Z,41.20
2019-03-20T17:48:09.540Z,37.53
2019-03-20T17:53:12.307Z,46.00
2019-03-20T17:58:15.064Z,43.17
2019-03-20T18:03:17.807Z,41.73
2019-03-20T18:08:20.566Z,52.47
2019-03-20T18:13:24.218Z,37.57
2019-03-20T18:18:26.992Z,52.87
2019-03-20T18:23:29.723Z,34.50
2019-03-20T18:28:32.539Z,49.57
2019-03-20T18:33:35.344Z,48.40
2019-03-20T18:38:38.091Z,44.30
2019-03-20T18:43:40.770Z,35.53
2019-03-20T18:48:43.713Z,41.47
2019-03-20T18:53:47.800Z,33.80
2019-03-20T18:58:51.671Z,43.03
2019-03-20T19:04:02.808Z,45.67
2019-03-20T19:09:07.690Z,44.53
2019-03-20T19:14:11.956Z,37.43
2019-03-20T19:19:14.757Z,34.53
2019-03-20T19:24:17.502Z,59.27
2019-03-20T19:29:20.376Z,38.60
2019-03-20T19:34:23.310Z,42.87
2019-03-20T19:39:26.110Z,47.03
2019-03-20T19:44:29.334Z,31.73
2019-03-20T19:49:32.506Z,35.53
2019-03-20T19:54:36.942Z,40.00
2019-03-20T19:59:39.966Z,43.63
2019-03-20T20:04:43.319Z,43.17
2019-03-20T20:09:46.372Z,39.73
2019-03-20T20:14:49.998Z,53.47
2019-03-20T20:19:53.359Z,45.17
2019-03-20T20:24:57.010Z,45.87
2019-03-20T20:30:00.350Z,38.70
2019-03-20T20:35:03.778Z,37.43
2019-03-20T20:40:08.597Z,49.73
2019-03-20T20:45:12.187Z,37.77
2019-03-20T20:50:17.942Z,38.20
2019-03-20T20:55:20.531Z,37.40
2019-03-20T21:00:23.441Z,25.37
2019-03-20T21:05:26.298Z,30.20
2019-03-20T21:10:29.040Z,39.60
2019-03-20T21:15:58.677Z,41.53
2019-03-20T21:21:01.813Z,26.80
2019-03-20T21:26:05.106Z,37.47
2019-03-20T21:31:24.330Z,40.07
2019-03-20T21:36:44.460Z,33.40
2019-03-20T21:42:25.012Z,39.33
2019-03-20T21:47:33.813Z,32.67
2019-03-20T21:52:37.361Z,31.43
2019-03-20T21:58:08.537Z,32.00
2019-03-20T22:03:11.791Z,38.10
2019-03-20T22:08:15.126Z,40.97
2019-03-20T22:13:31.257Z,32.93
2019-03-20T22:19:00.356Z,41.03
2019-03-20T22:24:39.331Z,31.00
2019-03-20T22:29:42.607Z,35.83
2019-03-20T22:35:22.693Z,39.97
2019-03-20T22:41:10.664Z,36.43
2019-03-20T22:46:59.764Z,28.93
2019-03-20T22:58:50.455Z,41.07
2019-03-20T23:03:58.646Z,45.70
2019-03-20T23:09:01.883Z,35.00
2019-03-20T23:14:07.029Z,44.33
2019-03-20T23:19:24.034Z,28.17
2019-03-20T23:24:27.248Z,33.20
2019-03-20T23:29:30.654Z,44.07
2019-03-20T23:34:34.059Z,42.37
2019-03-20T23:39:37.449Z,37.90
2019-03-20T23:44:40.774Z,40.97
2019-03-20T23:49:45.242Z,30.23
2019-03-20T23:54:51.505Z,30.27
2019-03-20T23:59:56.790Z,31.33
